createdAt,value
2022-08-24T00:01:27.793Z,64.39
2022-08-24T00:03:57.717Z,65.45
2022-08-24T00:06:28.542Z,66.09
2022-08-24T00:08:57.176Z,64.98
2022-08-24T00:11:24.976Z,65.76
2022-08-24T00:13:52.755Z,65.11
2022-08-24T00:16:20.634Z,64.83
2022-08-24T00:18:48.548Z,65.35
2022-08-24T00:21:16.405Z,66.62
2022-08-24T00:23:43.720Z,65.14
2022-08-24T00:26:11.322Z,64.01
2022-08-24T00:28:38.626Z,64.74
2022-08-24T00:31:08.304Z,66.32
2022-08-24T00:33:36.435Z,67.19
2022-08-24T00:36:04.973Z,65.63
2022-08-24T00:38:33.785Z,64.71
2022-08-24T00:41:02.021Z,65.29
2022-08-24T00:43:29.449Z,65.53
2022-08-24T00:46:15.832Z,63.91
2022-08-24T00:48:46.281Z,65.09
2022-08-24T00:51:19.119Z,65.94
2022-08-24T00:53:50.651Z,65.14
2022-08-24T00:56:22.021Z,64.96
2022-08-24T00:58:56.083Z,64.44
2022-08-24T01:01:26.003Z,64.45
2022-08-24T01:03:56.838Z,64.05
2022-08-24T01:06:25.020Z,64.78
2022-08-24T01:08:56.648Z,64.76
2022-08-24T01:11:27.497Z,64.17
2022-08-24T01:14:00.288Z,62.90
2022-08-24T01:16:46.091Z,63.55
2022-08-24T01:19:37.203Z,63.84
2022-08-24T01:22:42.909Z,65.55
2022-08-24T01:25:10.433Z,65.76
2022-08-24T01:27:38.151Z,65.21
2022-08-24T01:30:09.450Z,66.22
2022-08-24T01:32:38.893Z,65.21
2022-08-24T01:35:06.981Z,64.82
2022-08-24T01:37:34.877Z,64.38
2022-08-24T01:40:06.346Z,64.48
2022-08-24T01:42:34.934Z,65.98
2022-08-24T01:45:04.063Z,65.65
2022-08-24T01:47:31.427Z,64.46
2022-08-24T01:49:58.719Z,66.09
2022-08-24T01:52:29.735Z,66.02
2022-08-24T01:55:06.660Z,65.51
2022-08-24T01:57:33.882Z,65.50
2022-08-24T02:00:04.317Z,66.49
2022-08-24T02:02:41.478Z,65.38
2022-08-24T02:05:10.982Z,65.20
2022-08-24T02:07:39.133Z,65.78
2022-08-24T02:10:08.698Z,67.34
2022-08-24T02:12:36.778Z,66.47
2022-08-24T02:15:07.826Z,68.32
2022-08-24T02:17:36.253Z,68.97
2022-08-24T02:20:05.376Z,67.42
2022-08-24T02:22:32.927Z,67.76
2022-08-24T02:25:00.198Z,66.31
2022-08-24T02:27:27.505Z,65.67
2022-08-24T02:29:54.799Z,68.72
2022-08-24T02:32:22.068Z,65.56
2022-08-24T02:34:49.837Z,67.46
2022-08-24T02:37:21.884Z,69.02
2022-08-24T02:39:49.516Z,65.88
2022-08-24T02:42:19.007Z,67.94
2022-08-24T02:44:46.392Z,67.78
2022-08-24T02:47:17.949Z,67.06
2022-08-24T02:49:45.569Z,67.34
2022-08-24T02:52:13.109Z,66.44
2022-08-24T02:54:40.449Z,67.77
2022-08-24T02:57:08.087Z,67.83
2022-08-24T02:59:35.469Z,68.48
2022-08-24T03:02:04.175Z,68.26
2022-08-24T03:04:31.662Z,67.97
2022-08-24T03:06:59.628Z,67.65
2022-08-24T03:09:28.844Z,68.49
2022-08-24T03:11:58.256Z,71.64
2022-08-24T03:14:25.944Z,70.10
2022-08-24T03:16:53.835Z,68.25
2022-08-24T03:19:22.237Z,70.07
2022-08-24T03:21:49.503Z,70.87
2022-08-24T03:24:17.253Z,70.60
2022-08-24T03:26:45.328Z,69.85
2022-08-24T03:29:15.822Z,70.21
2022-08-24T03:31:44.197Z,72.42
2022-08-24T03:34:19.824Z,71.75
2022-08-24T03:36:48.747Z,71.39
2022-08-24T03:39:17.239Z,71.32
2022-08-24T03:41:45.271Z,70.47
2022-08-24T03:44:12.737Z,70.74
2022-08-24T03:46:40.142Z,71.39
2022-08-24T03:49:09.942Z,72.60
2022-08-24T03:51:38.371Z,71.55
2022-08-24T03:54:09.350Z,71.91
2022-08-24T03:56:37.017Z,71.72
2022-08-24T03:59:05.223Z,71.43
2022-08-24T04:01:38.864Z,71.30
2022-08-24T04:04:06.387Z,71.01
2022-08-24T04:06:36.141Z,72.01
2022-08-24T04:09:04.716Z,72.89
2022-08-24T04:11:39.410Z,70.28
2022-08-24T04:14:08.831Z,72.40
2022-08-24T04:16:58.616Z,72.98
2022-08-24T04:19:32.201Z,72.82
2022-08-24T04:21:59.580Z,73.35
2022-08-24T04:24:27.080Z,73.07
2022-08-24T04:26:54.563Z,73.49
2022-08-24T04:29:21.847Z,72.95
2022-08-24T04:31:52.488Z,73.63
2022-08-24T04:34:20.830Z,72.68
2022-08-24T04:36:49.191Z,72.30
2022-08-24T04:39:16.620Z,72.69
2022-08-24T04:41:50.604Z,72.98
2022-08-24T04:44:19.724Z,73.68
2022-08-24T04:46:47.490Z,74.01
2022-08-24T04:49:14.735Z,72.34
2022-08-24T04:51:42.026Z,73.69
2022-08-24T04:54:09.507Z,73.60
2022-08-24T04:56:38.061Z,73.45
2022-08-24T04:59:05.977Z,74.21
2022-08-24T05:01:34.648Z,74.46
2022-08-24T05:04:04.913Z,74.67
2022-08-24T05:06:32.870Z,73.06
2022-08-24T05:09:02.124Z,74.49
2022-08-24T05:11:31.140Z,75.49
2022-08-24T05:13:59.339Z,74.84
2022-08-24T05:16:27.993Z,73.97
2022-08-24T05:18:56.585Z,74.42
2022-08-24T05:21:26.386Z,74.85
2022-08-24T05:23:56.148Z,74.63
2022-08-24T05:26:28.102Z,74.65
2022-08-24T05:28:57.904Z,74.43
2022-08-24T05:31:29.732Z,74.41
2022-08-24T05:34:00.485Z,73.46
2022-08-24T05:36:30.265Z,73.94
2022-08-24T05:39:00.877Z,73.16
2022-08-24T05:41:28.831Z,73.43
2022-08-24T05:44:06.727Z,73.04
2022-08-24T05:46:35.333Z,73.77
2022-08-24T05:49:02.779Z,74.37
2022-08-24T05:51:32.148Z,72.97
2022-08-24T05:54:09.579Z,73.46
2022-08-24T05:56:48.535Z,72.87
2022-08-24T05:59:18.031Z,74.03
2022-08-24T06:01:46.557Z,73.22
2022-08-24T06:04:14.436Z,75.55
2022-08-24T06:06:42.776Z,75.51
2022-08-24T06:09:11.613Z,75.03
2022-08-24T06:11:40.345Z,74.81
2022-08-24T06:14:14.224Z,73.78
2022-08-24T06:16:52.831Z,73.77
2022-08-24T06:19:21.384Z,74.28
2022-08-24T06:21:51.253Z,73.22
2022-08-24T06:24:19.139Z,73.16
2022-08-24T06:27:06.100Z,71.70
2022-08-24T06:29:34.078Z,73.55
2022-08-24T06:32:17.984Z,72.81
2022-08-24T06:34:45.341Z,72.29
2022-08-24T06:37:13.684Z,72.82
2022-08-24T06:39:42.034Z,71.80
2022-08-24T06:42:11.039Z,71.84
2022-08-24T06:44:44.180Z,69.68
2022-08-24T06:47:19.896Z,68.01
2022-08-24T06:49:49.381Z,66.82
2022-08-24T06:52:16.674Z,67.39
2022-08-24T06:54:44.127Z,65.92
2022-08-24T06:57:11.499Z,66.65
2022-08-24T06:59:40.308Z,67.06
2022-08-24T07:02:09.302Z,65.25
2022-08-24T07:04:38.560Z,65.14
2022-08-24T07:07:24.580Z,65.06
2022-08-24T07:09:51.897Z,64.50
2022-08-24T07:12:19.480Z,64.15
2022-08-24T07:14:47.046Z,62.81
2022-08-24T07:17:14.334Z,62.32
2022-08-24T07:19:42.822Z,62.47
2022-08-24T07:22:10.401Z,62.77
2022-08-24T07:24:37.942Z,63.71
2022-08-24T07:27:06.684Z,63.41
2022-08-24T07:29:50.468Z,62.34
2022-08-24T07:32:20.733Z,61.29
2022-08-24T07:34:50.215Z,60.45
2022-08-24T07:37:17.813Z,59.97
2022-08-24T07:39:48.545Z,59.60
2022-08-24T07:42:26.522Z,59.27
2022-08-24T07:44:59.565Z,59.32
2022-08-24T07:47:38.132Z,57.81
2022-08-24T07:50:17.323Z,57.99
2022-08-24T07:52:45.541Z,57.27
2022-08-24T07:55:14.116Z,57.19
2022-08-24T07:57:42.228Z,56.54
2022-08-24T08:00:12.670Z,56.45
2022-08-24T08:02:47.348Z,55.95
2022-08-24T08:05:19.294Z,55.37
2022-08-24T08:07:52.118Z,55.13
2022-08-24T08:10:20.348Z,55.51
2022-08-24T08:12:47.776Z,54.99
2022-08-24T08:15:15.299Z,55.05
2022-08-24T08:18:03.011Z,54.63
2022-08-24T08:20:31.438Z,53.94
2022-08-24T08:23:17.688Z,54.38
2022-08-24T08:26:01.910Z,53.76
2022-08-24T08:28:43.494Z,53.12
2022-08-24T08:31:10.932Z,53.31
2022-08-24T08:33:40.240Z,53.43
2022-08-24T08:36:15.031Z,52.68
2022-08-24T08:38:50.418Z,52.65
2022-08-24T08:41:42.275Z,51.16
2022-08-24T08:44:35.708Z,51.48
2022-08-24T08:47:21.905Z,51.29
2022-08-24T08:50:39.915Z,51.20
2022-08-24T08:53:50.457Z,48.69
2022-08-24T08:56:28.936Z,49.15
2022-08-24T08:59:21.992Z,48.83
2022-08-24T09:02:25.148Z,49.96
2022-08-24T09:05:23.158Z,48.90
2022-08-24T09:07:56.761Z,49.39
2022-08-24T09:11:01.937Z,48.07
2022-08-24T09:14:09.903Z,47.09
2022-08-24T09:16:49.195Z,47.16
2022-08-24T09:19:31.871Z,46.88
2022-08-24T09:22:07.126Z,46.66
2022-08-24T09:24:52.730Z,46.04
2022-08-24T09:28:01.561Z,45.93
2022-08-24T09:30:44.803Z,45.42
2022-08-24T09:33:20.780Z,45.20
2022-08-24T09:36:08.222Z,45.61
2022-08-24T09:38:58.968Z,45.27
2022-08-24T09:41:43.802Z,45.68
2022-08-24T09:44:22.051Z,45.35
2022-08-24T09:46:59.069Z,45.50
2022-08-24T09:49:48.530Z,45.45
2022-08-24T09:52:34.672Z,44.73
2022-08-24T09:55:30.167Z,44.57
2022-08-24T09:58:01.608Z,45.03
2022-08-24T10:01:08.899Z,45.67
2022-08-24T10:04:00.514Z,44.89
2022-08-24T10:06:58.010Z,44.59
2022-08-24T10:09:41.079Z,44.83
2022-08-24T10:12:17.273Z,44.59
2022-08-24T10:14:53.651Z,44.08
2022-08-24T10:17:49.892Z,48.06
2022-08-24T10:20:23.929Z,44.45
2022-08-24T10:23:28.121Z,43.55
2022-08-24T10:26:54.610Z,43.11
2022-08-24T10:29:24.836Z,43.70
2022-08-24T10:32:25.745Z,43.06
2022-08-24T10:35:06.658Z,42.62
2022-08-24T10:38:17.481Z,43.71
2022-08-24T10:41:13.565Z,43.28
2022-08-24T10:44:00.528Z,42.42
2022-08-24T10:46:49.745Z,42.30
2022-08-24T10:49:32.243Z,42.11
2022-08-24T10:52:38.078Z,41.95
2022-08-24T10:55:19.624Z,42.10
2022-08-24T10:58:14.776Z,41.95
2022-08-24T11:00:43.068Z,41.85
2022-08-24T11:03:18.522Z,41.22
2022-08-24T11:05:49.568Z,41.09
2022-08-24T11:08:28.351Z,40.81
2022-08-24T11:11:10.704Z,40.85
2022-08-24T11:14:03.848Z,41.02
2022-08-24T11:16:40.931Z,40.75
2022-08-24T11:19:11.223Z,40.47
2022-08-24T11:21:49.799Z,40.43
2022-08-24T11:24:23.942Z,40.54
2022-08-24T11:26:56.044Z,40.36
2022-08-24T11:29:31.617Z,40.72
2022-08-24T11:31:59.537Z,40.18
2022-08-24T11:34:34.694Z,40.05
2022-08-24T11:37:05.762Z,40.32
2022-08-24T11:39:38.684Z,39.94
2022-08-24T11:42:33.521Z,39.75
2022-08-24T11:45:10.603Z,39.32
2022-08-24T11:47:56.328Z,39.25
2022-08-24T11:50:33.760Z,38.88
2022-08-24T11:53:12.041Z,39.06
2022-08-24T11:55:51.971Z,38.89
2022-08-24T11:58:34.801Z,38.91
2022-08-24T12:01:07.497Z,38.70
2022-08-24T12:03:53.470Z,38.48
2022-08-24T12:06:31.455Z,39.13
2022-08-24T12:09:36.993Z,39.35
2022-08-24T12:12:19.718Z,38.61
2022-08-24T12:15:12.235Z,38.20
2022-08-24T12:17:54.469Z,38.34
2022-08-24T12:20:36.466Z,38.12
2022-08-24T12:23:11.564Z,37.41
2022-08-24T12:25:57.395Z,37.07
2022-08-24T12:28:29.870Z,36.46
2022-08-24T12:30:59.968Z,36.99
2022-08-24T12:33:33.172Z,36.56
2022-08-24T12:36:14.552Z,36.66
2022-08-24T12:38:49.635Z,35.98
2022-08-24T12:41:19.856Z,36.07
2022-08-24T12:43:50.076Z,35.78
2022-08-24T12:46:21.784Z,35.80
2022-08-24T12:48:56.185Z,35.14
2022-08-24T12:51:38.830Z,35.43
2022-08-24T12:54:16.645Z,35.78
2022-08-24T12:57:13.190Z,35.92
2022-08-24T12:59:49.007Z,35.73
2022-08-24T13:02:19.289Z,35.73
2022-08-24T13:04:49.361Z,35.72
2022-08-24T13:07:19.268Z,34.98
2022-08-24T13:10:02.306Z,35.49
2022-08-24T13:12:38.959Z,35.25
2022-08-24T13:15:30.679Z,34.85
2022-08-24T13:18:20.919Z,35.43
2022-08-24T13:20:48.118Z,35.36
2022-08-24T13:23:19.001Z,35.23
2022-08-24T13:26:14.347Z,35.30
2022-08-24T13:28:48.078Z,34.37
2022-08-24T13:31:28.207Z,33.99
2022-08-24T13:34:09.434Z,34.21
2022-08-24T13:36:49.998Z,33.96
2022-08-24T13:39:26.441Z,34.20
2022-08-24T13:42:03.747Z,34.25
2022-08-24T13:44:34.507Z,33.72
2022-08-24T13:47:09.608Z,33.93
2022-08-24T13:49:53.247Z,33.37
2022-08-24T13:52:48.656Z,34.05
2022-08-24T13:55:29.691Z,33.89
2022-08-24T13:58:31.036Z,33.02
2022-08-24T14:01:35.944Z,33.59
2022-08-24T14:04:24.973Z,32.99
2022-08-24T14:07:00.992Z,33.09
2022-08-24T14:09:38.231Z,33.42
2022-08-24T14:12:43.936Z,33.28
2022-08-24T14:15:25.927Z,32.87
2022-08-24T14:18:09.600Z,32.98
2022-08-24T14:21:12.845Z,32.55
2022-08-24T14:24:02.956Z,32.53
2022-08-24T14:26:42.111Z,32.19
2022-08-24T14:29:15.265Z,32.06
2022-08-24T14:32:12.454Z,31.38
2022-08-24T14:34:41.070Z,31.11
2022-08-24T14:37:32.907Z,30.85
2022-08-24T14:40:03.316Z,31.32
2022-08-24T14:42:45.935Z,30.27
2022-08-24T14:45:34.595Z,30.64
2022-08-24T14:48:13.510Z,30.10
2022-08-24T14:50:48.811Z,29.65
2022-08-24T14:53:31.213Z,28.95
2022-08-24T14:56:25.034Z,28.60
2022-08-24T14:59:28.129Z,28.60
2022-08-24T15:02:29.570Z,28.20
2022-08-24T15:05:22.301Z,29.31
2022-08-24T15:08:11.770Z,29.95
2022-08-24T15:10:54.707Z,29.11
2022-08-24T15:13:28.277Z,29.62
2022-08-24T15:16:01.945Z,30.20
2022-08-24T15:18:37.256Z,30.01
2022-08-24T15:21:32.518Z,29.68
2022-08-24T15:24:10.153Z,29.27
2022-08-24T15:26:52.870Z,29.54
2022-08-24T15:29:25.962Z,29.02
2022-08-24T15:32:01.997Z,29.23
2022-08-24T15:34:48.729Z,28.96
2022-08-24T15:37:30.770Z,29.14
2022-08-24T15:39:59.121Z,28.86
2022-08-24T15:42:29.550Z,28.27
2022-08-24T15:45:00.510Z,28.95
2022-08-24T15:47:32.262Z,28.75
2022-08-24T15:50:24.047Z,29.17
2022-08-24T15:53:08.331Z,28.83
2022-08-24T15:55:38.706Z,29.21
2022-08-24T15:58:26.673Z,29.19
2022-08-24T16:01:37.971Z,29.00
2022-08-24T16:04:40.391Z,29.39
2022-08-24T16:07:07.805Z,29.62
2022-08-24T16:09:37.550Z,29.97
2022-08-24T16:12:16.569Z,29.83
2022-08-24T16:14:46.933Z,29.95
2022-08-24T16:17:34.105Z,30.23
2022-08-24T16:20:06.485Z,30.04
2022-08-24T16:22:39.531Z,29.77
2022-08-24T16:25:09.547Z,30.06
2022-08-24T16:28:02.330Z,30.17
2022-08-24T16:30:49.865Z,30.28
2022-08-24T16:33:33.191Z,29.97
2022-08-24T16:36:06.725Z,29.82
2022-08-24T16:38:35.591Z,29.98
2022-08-24T16:41:06.504Z,29.40
2022-08-24T16:43:39.498Z,29.45
2022-08-24T16:46:08.491Z,29.46
2022-08-24T16:48:36.052Z,29.44
2022-08-24T16:51:04.538Z,29.32
2022-08-24T16:53:31.796Z,28.99
2022-08-24T16:55:59.462Z,29.68
2022-08-24T16:58:31.345Z,28.96
2022-08-24T17:00:59.147Z,29.14
2022-08-24T17:03:26.602Z,29.95
2022-08-24T17:05:55.478Z,29.39
2022-08-24T17:08:22.798Z,29.39
2022-08-24T17:10:50.291Z,29.76
2022-08-24T17:13:45.839Z,29.71
2022-08-24T17:16:04.953Z,29.36
2022-08-24T17:18:34.459Z,29.63
2022-08-24T17:21:01.745Z,30.46
2022-08-24T17:23:29.435Z,30.00
2022-08-24T17:25:56.715Z,29.78
2022-08-24T17:28:24.095Z,29.88
2022-08-24T17:30:51.738Z,29.97
2022-08-24T17:33:19.693Z,29.82
2022-08-24T17:35:47.034Z,29.98
2022-08-24T17:38:14.486Z,29.83
2022-08-24T17:40:41.731Z,29.52
2022-08-24T17:43:09.168Z,29.49
2022-08-24T17:45:36.461Z,29.80
2022-08-24T17:48:04.114Z,30.39
2022-08-24T17:50:32.083Z,30.07
2022-08-24T17:53:00.466Z,30.77
2022-08-24T17:55:28.307Z,30.80
2022-08-24T17:57:55.874Z,30.95
2022-08-24T18:00:23.254Z,30.52
2022-08-24T18:02:50.573Z,30.73
2022-08-24T18:05:18.467Z,30.61
2022-08-24T18:07:53.926Z,30.47
2022-08-24T18:10:25.901Z,30.98
2022-08-24T18:12:53.565Z,30.93
2022-08-24T18:15:21.145Z,30.85
2022-08-24T18:17:51.520Z,30.98
2022-08-24T18:20:25.878Z,31.02
2022-08-24T18:22:53.863Z,31.55
2022-08-24T18:25:23.227Z,31.62
2022-08-24T18:27:52.381Z,31.68
2022-08-24T18:30:23.212Z,31.11
2022-08-24T18:32:56.486Z,31.09
2022-08-24T18:35:23.844Z,31.32
2022-08-24T18:37:51.110Z,31.48
2022-08-24T18:40:21.069Z,31.68
2022-08-24T18:42:50.669Z,31.21
2022-08-24T18:45:18.507Z,31.40
2022-08-24T18:47:52.985Z,31.52
2022-08-24T18:50:21.373Z,31.32
2022-08-24T18:52:48.781Z,31.33
2022-08-24T18:55:16.868Z,31.43
2022-08-24T18:57:44.661Z,31.68
2022-08-24T19:00:12.896Z,31.65
2022-08-24T19:02:40.716Z,32.02
2022-08-24T19:05:14.738Z,32.04
2022-08-24T19:07:45.182Z,31.92
2022-08-24T19:10:15.074Z,31.59
2022-08-24T19:12:46.939Z,31.45
2022-08-24T19:15:30.894Z,31.82
2022-08-24T19:18:05.429Z,31.69
2022-08-24T19:20:35.167Z,31.60
2022-08-24T19:23:08.863Z,31.08
2022-08-24T19:25:37.311Z,31.01
2022-08-24T19:28:05.218Z,31.08
2022-08-24T19:30:32.651Z,31.55
2022-08-24T19:33:00.821Z,30.98
2022-08-24T19:35:29.912Z,31.53
2022-08-24T19:37:57.198Z,31.62
2022-08-24T19:40:24.582Z,31.47
2022-08-24T19:42:53.708Z,31.77
2022-08-24T19:45:43.629Z,31.64
2022-08-24T19:48:12.418Z,31.91
2022-08-24T19:50:40.089Z,31.49
2022-08-24T19:53:07.732Z,31.53
2022-08-24T19:55:34.899Z,31.46
2022-08-24T19:58:20.001Z,31.98
2022-08-24T20:01:02.285Z,31.66
2022-08-24T20:03:29.554Z,31.80
2022-08-24T20:05:57.211Z,31.69
2022-08-24T20:08:24.666Z,31.79
2022-08-24T20:10:55.966Z,31.95
2022-08-24T20:13:23.219Z,31.58
2022-08-24T20:15:50.622Z,32.09
2022-08-24T20:18:18.125Z,32.57
2022-08-24T20:20:46.444Z,32.15
2022-08-24T20:23:16.656Z,32.33
2022-08-24T20:25:44.025Z,32.21
2022-08-24T20:28:32.642Z,32.47
2022-08-24T20:31:02.099Z,32.46
2022-08-24T20:33:29.406Z,32.56
2022-08-24T20:35:56.802Z,32.65
2022-08-24T20:38:24.606Z,32.62
2022-08-24T20:40:52.526Z,32.99
2022-08-24T20:43:20.291Z,32.84
2022-08-24T20:45:50.674Z,32.89
2022-08-24T20:48:26.143Z,32.98
2022-08-24T20:50:53.643Z,33.67
2022-08-24T20:53:20.866Z,34.53
2022-08-24T20:55:48.534Z,34.73
2022-08-24T20:58:17.896Z,35.57
2022-08-24T21:00:46.026Z,35.84
2022-08-24T21:03:18.833Z,35.80
2022-08-24T21:05:47.547Z,36.91
2022-08-24T21:08:14.853Z,37.02
2022-08-24T21:10:42.492Z,37.32
2022-08-24T21:13:10.281Z,37.40
2022-08-24T21:15:39.470Z,37.80
2022-08-24T21:18:06.857Z,38.02
2022-08-24T21:20:34.619Z,38.18
2022-08-24T21:23:01.943Z,38.45
2022-08-24T21:25:29.758Z,39.18
2022-08-24T21:27:59.608Z,39.37
2022-08-24T21:30:27.123Z,39.43
2022-08-24T21:33:12.980Z,39.51
2022-08-24T21:35:42.695Z,39.92
2022-08-24T21:38:11.366Z,40.09
2022-08-24T21:40:38.604Z,40.27
2022-08-24T21:43:09.303Z,40.39
2022-08-24T21:45:42.566Z,40.67
2022-08-24T21:48:12.979Z,40.36
2022-08-24T21:50:40.274Z,40.25
2022-08-24T21:53:08.081Z,40.14
2022-08-24T21:55:35.783Z,40.53
2022-08-24T21:58:03.136Z,40.35
2022-08-24T22:00:30.661Z,40.47
2022-08-24T22:02:57.972Z,40.64
2022-08-24T22:05:25.298Z,40.77
2022-08-24T22:07:52.501Z,40.53
2022-08-24T22:10:19.984Z,41.17
2022-08-24T22:12:47.201Z,41.03
2022-08-24T22:15:18.615Z,41.38
2022-08-24T22:17:52.875Z,41.86
2022-08-24T22:20:23.368Z,41.78
2022-08-24T22:22:51.198Z,41.98
2022-08-24T22:25:18.617Z,41.84
2022-08-24T22:27:46.741Z,41.88
2022-08-24T22:30:16.986Z,41.98
2022-08-24T22:32:45.574Z,41.94
2022-08-24T22:35:13.190Z,42.30
2022-08-24T22:37:42.936Z,42.17
2022-08-24T22:40:12.654Z,42.07
2022-08-24T22:42:40.571Z,41.90
2022-08-24T22:45:09.309Z,42.13
2022-08-24T22:47:37.321Z,42.04
2022-08-24T22:50:06.505Z,42.42
2022-08-24T22:52:34.216Z,42.23
2022-08-24T22:55:01.759Z,42.24
2022-08-24T22:57:30.250Z,42.53
2022-08-24T22:59:57.967Z,43.00
2022-08-24T23:02:25.314Z,43.02
2022-08-24T23:04:53.112Z,42.85
2022-08-24T23:07:21.056Z,42.86
2022-08-24T23:09:48.799Z,43.08
2022-08-24T23:12:22.392Z,43.87
2022-08-24T23:14:51.187Z,43.98
2022-08-24T23:17:19.705Z,44.59
2022-08-24T23:20:05.394Z,44.35
2022-08-24T23:22:36.316Z,44.48
2022-08-24T23:25:05.059Z,44.07
2022-08-24T23:27:37.925Z,44.91
2022-08-24T23:30:09.884Z,45.03
2022-08-24T23:32:37.693Z,44.88
2022-08-24T23:35:06.002Z,44.93
2022-08-24T23:37:33.430Z,44.97
2022-08-24T23:40:00.893Z,46.29
2022-08-24T23:42:28.176Z,45.56
2022-08-24T23:44:55.468Z,45.34
2022-08-24T23:47:22.815Z,46.19
2022-08-24T23:49:50.994Z,45.85
2022-08-24T23:52:27.207Z,45.61
2022-08-24T23:55:18.233Z,46.60
2022-08-24T23:57:44.652Z,47.14
